createdAt,value
2019-04-29T00:01:27.255Z,50.77
2019-04-29T00:03:56.799Z,53.33
2019-04-29T00:06:26.405Z,52.90
2019-04-29T00:08:55.982Z,53.80
2019-04-29T00:11:25.635Z,58.60
2019-04-29T00:13:55.440Z,50.07
2019-04-29T00:16:43.999Z,54.90
2019-04-29T00:19:37.386Z,52.90
2019-04-29T00:22:07.057Z,52.03
2019-04-29T00:24:36.658Z,50.83
2019-04-29T00:27:06.385Z,57.53
2019-04-29T00:29:35.985Z,57.63
2019-04-29T00:32:06.114Z,55.73
2019-04-29T00:34:35.523Z,55.23
2019-04-29T00:37:11.759Z,56.03
2019-04-29T00:39:59.106Z,49.73
2019-04-29T00:42:45.818Z,55.33
2019-04-29T00:45:15.755Z,57.30
2019-04-29T00:47:45.544Z,52.30
2019-04-29T00:50:15.443Z,65.87
2019-04-29T00:52:45.026Z,59.77
2019-04-29T00:55:17.100Z,57.83
2019-04-29T00:57:46.531Z,60.83
2019-04-29T01:00:24.793Z,57.70
2019-04-29T01:02:54.133Z,56.30
2019-04-29T01:05:23.566Z,55.10
2019-04-29T01:07:53.431Z,59.67
2019-04-29T01:10:23.011Z,64.90
2019-04-29T01:12:52.637Z,53.53
2019-04-29T01:15:22.138Z,57.87
2019-04-29T01:17:51.703Z,54.47
2019-04-29T01:20:21.354Z,61.77
2019-04-29T01:22:50.891Z,52.83
2019-04-29T01:25:20.467Z,54.33
2019-04-29T01:28:05.548Z,55.60
2019-04-29T01:31:24.850Z,57.87
2019-04-29T01:33:58.177Z,55.77
2019-04-29T01:36:36.097Z,60.37
2019-04-29T01:39:08.933Z,65.43
2019-04-29T01:41:44.734Z,60.60
2019-04-29T01:44:14.817Z,64.37
2019-04-29T01:46:44.306Z,71.63
2019-04-29T01:49:13.801Z,73.80
2019-04-29T01:51:43.200Z,74.37
2019-04-29T01:54:12.665Z,77.33
2019-04-29T01:56:42.138Z,68.73
2019-04-29T01:59:11.515Z,70.20
2019-04-29T02:01:41.081Z,77.50
2019-04-29T02:04:10.518Z,69.87
2019-04-29T02:06:39.910Z,71.13
2019-04-29T02:09:13.377Z,78.77
2019-04-29T02:11:42.822Z,73.43
2019-04-29T02:14:12.390Z,76.30
2019-04-29T02:16:41.822Z,63.40
2019-04-29T02:19:11.297Z,71.27
2019-04-29T02:21:42.646Z,66.70
2019-04-29T02:24:17.575Z,79.93
2019-04-29T02:26:47.085Z,61.47
2019-04-29T02:29:16.817Z,68.20
2019-04-29T02:31:47.700Z,74.50
2019-04-29T02:34:17.062Z,69.30
2019-04-29T02:36:46.483Z,71.93
2019-04-29T02:39:34.787Z,81.10
2019-04-29T02:42:26.858Z,64.80
2019-04-29T02:44:59.023Z,70.93
2019-04-29T02:47:28.643Z,74.33
2019-04-29T02:49:58.105Z,72.90
2019-04-29T02:52:27.752Z,75.30
2019-04-29T02:54:59.870Z,76.43
2019-04-29T02:57:37.638Z,76.73
2019-04-29T03:00:39.220Z,77.33
2019-04-29T03:03:15.062Z,79.23
2019-04-29T03:05:48.140Z,77.67
2019-04-29T03:08:17.632Z,76.43
2019-04-29T03:10:47.228Z,78.87
2019-04-29T03:13:16.966Z,80.97
2019-04-29T03:15:46.607Z,82.50
2019-04-29T03:18:16.537Z,77.40
2019-04-29T03:21:03.613Z,67.60
2019-04-29T03:23:33.586Z,73.07
2019-04-29T03:26:03.132Z,69.83
2019-04-29T03:28:32.595Z,75.77
2019-04-29T03:31:02.199Z,68.50
2019-04-29T03:33:31.848Z,74.00
2019-04-29T03:36:01.312Z,78.87
2019-04-29T03:38:31.229Z,75.47
2019-04-29T03:41:00.603Z,74.33
2019-04-29T03:43:30.167Z,78.37
2019-04-29T03:45:59.934Z,79.27
2019-04-29T03:48:29.691Z,75.30
2019-04-29T03:50:59.117Z,72.20
2019-04-29T03:53:28.898Z,74.77
2019-04-29T03:55:58.474Z,73.50
2019-04-29T03:58:27.839Z,77.27
2019-04-29T04:01:04.771Z,69.93
2019-04-29T04:03:42.598Z,70.90
2019-04-29T04:06:49.338Z,68.27
2019-04-29T04:09:24.600Z,70.80
2019-04-29T04:11:54.248Z,71.13
2019-04-29T04:14:23.626Z,75.70
2019-04-29T04:17:20.572Z,71.23
2019-04-29T04:19:50.176Z,67.57
2019-04-29T04:22:19.680Z,74.07
2019-04-29T04:24:52.252Z,64.60
2019-04-29T04:27:21.683Z,72.27
2019-04-29T04:29:51.359Z,69.27
2019-04-29T04:32:20.967Z,68.43
2019-04-29T04:34:50.400Z,69.63
2019-04-29T04:37:19.926Z,68.53
2019-04-29T04:39:49.412Z,66.77
2019-04-29T04:42:18.965Z,68.87
2019-04-29T04:44:49.341Z,66.43
2019-04-29T04:47:20.369Z,63.27
2019-04-29T04:49:49.786Z,66.70
2019-04-29T04:52:19.465Z,63.83
2019-04-29T04:54:50.905Z,60.47
2019-04-29T04:57:20.539Z,61.73
2019-04-29T04:59:50.128Z,59.50
2019-04-29T05:02:19.727Z,58.23
2019-04-29T05:04:49.182Z,62.53
2019-04-29T05:07:18.838Z,61.07
2019-04-29T05:09:48.430Z,65.20
2019-04-29T05:12:18.053Z,55.47
2019-04-29T05:14:47.482Z,57.43
2019-04-29T05:17:17.158Z,59.33
2019-04-29T05:19:46.654Z,56.33
2019-04-29T05:22:16.204Z,55.57
2019-04-29T05:24:45.892Z,55.17
2019-04-29T05:27:15.337Z,54.43
2019-04-29T05:29:44.691Z,58.37
2019-04-29T05:32:14.388Z,52.17
2019-04-29T05:34:48.025Z,48.07
2019-04-29T05:37:27.096Z,47.97
2019-04-29T05:39:56.447Z,61.20
2019-04-29T05:42:26.039Z,47.30
2019-04-29T05:45:20.545Z,52.93
2019-04-29T05:47:58.455Z,47.03
2019-04-29T05:50:47.635Z,47.67
2019-04-29T05:53:21.908Z,48.37
2019-04-29T05:55:52.684Z,56.67
2019-04-29T05:58:22.334Z,45.70
2019-04-29T06:01:19.871Z,47.00
2019-04-29T06:03:49.403Z,46.57
2019-04-29T06:06:18.843Z,41.40
2019-04-29T06:08:48.419Z,47.87
2019-04-29T06:11:17.947Z,46.27
2019-04-29T06:13:47.527Z,42.70
2019-04-29T06:16:20.870Z,44.00
2019-04-29T06:18:48.271Z,46.00
2019-04-29T06:21:17.667Z,42.93
2019-04-29T06:23:47.362Z,43.13
2019-04-29T06:26:16.805Z,42.33
2019-04-29T06:28:46.398Z,47.43
2019-04-29T06:31:16.012Z,41.90
2019-04-29T06:33:45.467Z,49.30
2019-04-29T06:36:15.226Z,44.80
2019-04-29T06:38:44.823Z,42.70
2019-04-29T06:41:14.426Z,44.23
2019-04-29T06:43:44.138Z,41.43
2019-04-29T06:46:13.670Z,40.63
2019-04-29T06:48:43.355Z,44.23
2019-04-29T06:51:12.950Z,44.83
2019-04-29T06:53:42.778Z,44.50
2019-04-29T06:56:12.296Z,40.77
2019-04-29T06:58:41.875Z,42.20
2019-04-29T07:01:11.339Z,39.03
2019-04-29T07:03:40.706Z,41.67
2019-04-29T07:06:10.254Z,38.70
2019-04-29T07:08:39.851Z,41.60
2019-04-29T07:11:09.418Z,41.43
2019-04-29T07:13:39.003Z,40.80
2019-04-29T07:16:08.423Z,41.30
2019-04-29T07:18:40.410Z,46.57
2019-04-29T07:21:11.857Z,36.67
2019-04-29T07:23:40.360Z,38.53
2019-04-29T07:26:09.806Z,37.57
2019-04-29T07:28:39.424Z,36.90
2019-04-29T07:31:10.266Z,42.10
2019-04-29T07:33:39.994Z,44.47
2019-04-29T07:36:11.320Z,36.10
2019-04-29T07:38:41.953Z,39.93
2019-04-29T07:41:14.311Z,37.87
2019-04-29T07:43:44.217Z,36.10
2019-04-29T07:46:25.667Z,37.97
2019-04-29T07:49:01.852Z,35.60
2019-04-29T07:51:26.310Z,40.50
2019-04-29T07:53:55.749Z,37.00
2019-04-29T07:56:25.184Z,41.00
2019-04-29T07:58:58.607Z,38.33
2019-04-29T08:01:26.394Z,38.83
2019-04-29T08:03:56.236Z,35.57
2019-04-29T08:06:26.028Z,35.77
2019-04-29T08:08:58.809Z,37.53
2019-04-29T08:11:26.763Z,37.40
2019-04-29T08:13:57.907Z,37.53
2019-04-29T08:16:27.314Z,39.27
2019-04-29T08:18:56.662Z,39.73
2019-04-29T08:21:26.170Z,34.97
2019-04-29T08:23:57.172Z,34.53
2019-04-29T08:26:26.730Z,37.57
2019-04-29T08:29:00.308Z,38.87
2019-04-29T08:31:27.470Z,39.07
2019-04-29T08:33:57.033Z,37.10
2019-04-29T08:36:26.522Z,36.37
2019-04-29T08:39:07.928Z,38.60
2019-04-29T08:41:29.853Z,37.40
2019-04-29T08:44:17.292Z,43.40
2019-04-29T08:46:54.562Z,36.83
2019-04-29T08:49:24.034Z,36.27
2019-04-29T08:51:53.502Z,36.00
2019-04-29T08:54:22.987Z,37.83
2019-04-29T08:57:02.781Z,35.33
2019-04-29T08:59:24.412Z,35.57
2019-04-29T09:01:54.330Z,36.60
2019-04-29T09:04:23.673Z,34.87
2019-04-29T09:06:53.105Z,34.30
2019-04-29T09:09:29.319Z,34.07
2019-04-29T09:11:54.110Z,37.73
2019-04-29T09:14:23.542Z,30.57
2019-04-29T09:16:53.179Z,30.70
2019-04-29T09:19:22.711Z,36.75
2019-04-29T09:21:56.181Z,34.00
